createdAt,value
2022-12-14T00:01:41.296Z,-5.13
2022-12-14T00:06:42.910Z,-4.28
2022-12-14T00:11:44.658Z,-4.53
2022-12-14T00:16:46.237Z,-4.43
2022-12-14T00:21:47.823Z,-4.71
2022-12-14T00:26:50.558Z,-4.59
2022-12-14T00:31:52.292Z,-4.31
2022-12-14T00:36:55.549Z,-3.90
2022-12-14T00:41:57.322Z,-5.05
2022-12-14T00:46:59.138Z,-4.43
2022-12-14T00:52:00.755Z,-4.79
2022-12-14T00:57:02.351Z,-4.66
2022-12-14T01:02:04.393Z,-3.77
2022-12-14T01:07:06.084Z,-4.16
2022-12-14T01:12:07.780Z,-3.85
2022-12-14T01:17:09.526Z,-4.16
2022-12-14T01:22:11.141Z,-4.83
2022-12-14T01:27:12.876Z,-4.03
2022-12-14T01:32:14.484Z,-4.41
2022-12-14T01:37:16.310Z,-4.31
2022-12-14T01:42:17.904Z,-4.74
2022-12-14T01:47:26.762Z,-4.27
2022-12-14T01:52:35.775Z,-4.11
2022-12-14T01:57:54.916Z,-3.36
2022-12-14T02:03:06.657Z,-3.58
2022-12-14T02:08:09.526Z,-3.17
2022-12-14T02:13:25.770Z,-4.36
2022-12-14T02:18:29.756Z,-3.94
2022-12-14T02:23:46.298Z,-2.90
2022-12-14T02:29:06.483Z,-3.83
2022-12-14T02:34:31.394Z,-3.39
2022-12-14T02:39:41.696Z,-3.45
2022-12-14T02:44:57.481Z,-3.36
2022-12-14T02:50:20.427Z,-3.91
2022-12-14T02:55:26.431Z,-4.29
2022-12-14T03:00:32.264Z,-3.78
2022-12-14T03:05:34.931Z,-3.83
2022-12-14T03:10:40.792Z,-3.73
2022-12-14T03:15:47.429Z,-3.35
2022-12-14T03:20:52.212Z,-3.92
2022-12-14T03:25:58.752Z,-3.02
2022-12-14T03:31:09.031Z,-3.80
2022-12-14T03:36:59.395Z,-3.23
2022-12-14T03:42:24.128Z,-2.63
2022-12-14T03:47:40.825Z,-3.14
2022-12-14T03:53:09.716Z,-3.31
2022-12-14T03:58:37.615Z,-2.85
2022-12-14T04:03:54.167Z,-4.08
2022-12-14T04:09:14.120Z,-3.36
2022-12-14T04:14:45.207Z,-3.64
2022-12-14T04:20:10.313Z,-4.06
2022-12-14T04:25:41.727Z,-4.02
2022-12-14T04:30:43.597Z,-3.51
2022-12-14T04:35:45.779Z,-3.22
2022-12-14T04:41:02.271Z,-3.17
2022-12-14T04:46:27.839Z,-3.00
2022-12-14T04:51:43.090Z,-3.15
2022-12-14T04:56:52.455Z,-3.42
2022-12-14T05:02:18.558Z,-2.53
2022-12-14T05:07:34.019Z,-3.02
2022-12-14T05:12:52.023Z,-3.39
2022-12-14T05:17:54.430Z,-3.71
2022-12-14T05:22:56.079Z,-3.10
2022-12-14T05:27:57.850Z,-3.05
2022-12-14T05:32:59.475Z,-2.95
2022-12-14T05:38:01.054Z,-2.91
2022-12-14T05:43:07.370Z,-2.91
2022-12-14T05:48:09.152Z,-2.74
2022-12-14T05:53:10.703Z,-3.18
2022-12-14T05:58:12.296Z,-2.04
2022-12-14T06:03:14.567Z,-2.97
2022-12-14T06:08:16.149Z,-1.77
2022-12-14T06:13:17.754Z,-2.62
2022-12-14T06:18:19.824Z,-2.72
2022-12-14T06:23:21.415Z,-2.95
2022-12-14T06:28:23.672Z,-2.90
2022-12-14T06:33:26.050Z,-3.25
2022-12-14T06:38:27.981Z,-2.99
2022-12-14T06:43:29.870Z,-1.85
2022-12-14T06:48:31.675Z,-2.28
2022-12-14T06:53:35.351Z,-3.29
2022-12-14T06:58:37.650Z,-3.96
2022-12-14T07:03:39.847Z,-3.62
2022-12-14T07:08:41.605Z,-3.13
2022-12-14T07:13:43.510Z,-4.15
2022-12-14T07:18:45.142Z,-3.34
2022-12-14T07:23:48.619Z,-4.08
2022-12-14T07:28:51.683Z,-2.94
2022-12-14T07:33:55.207Z,-2.94
2022-12-14T07:38:57.516Z,-3.42
2022-12-14T07:44:00.915Z,-3.50
2022-12-14T07:49:03.292Z,-3.34
2022-12-14T07:54:06.375Z,-3.33
2022-12-14T07:59:12.115Z,-3.27
2022-12-14T08:04:17.550Z,-4.17
2022-12-14T08:09:20.266Z,-3.52
2022-12-14T08:14:22.493Z,-2.76
2022-12-14T08:19:24.052Z,-2.17
2022-12-14T08:24:25.605Z,-2.41
2022-12-14T08:29:27.316Z,-3.18
2022-12-14T08:34:29.123Z,-3.02
2022-12-14T08:39:30.687Z,-2.21
2022-12-14T08:44:32.363Z,-2.45
2022-12-14T08:49:33.950Z,-2.32
2022-12-14T08:54:35.519Z,-2.96
2022-12-14T09:00:00.642Z,-3.50
2022-12-14T09:04:58.692Z,-3.09
2022-12-14T09:10:00.379Z,-3.81
2022-12-14T09:15:02.258Z,-3.54
2022-12-14T09:20:05.743Z,-3.81
2022-12-14T09:25:08.323Z,-3.95
2022-12-14T09:30:10.088Z,-3.81
2022-12-14T09:35:11.911Z,-3.49
2022-12-14T09:40:14.184Z,-3.49
2022-12-14T09:45:38.283Z,-2.49
2022-12-14T09:50:40.540Z,-2.55
2022-12-14T09:55:46.507Z,-3.80
2022-12-14T10:01:11.231Z,-3.59
2022-12-14T10:06:39.829Z,-3.92
2022-12-14T10:11:56.784Z,-3.24
2022-12-14T10:17:33.265Z,-2.90
2022-12-14T10:22:42.467Z,-2.65
2022-12-14T10:33:26.607Z,-3.06
2022-12-14T10:38:54.081Z,-2.15
2022-12-14T10:44:22.859Z,-2.17
2022-12-14T10:49:42.148Z,-2.66
2022-12-14T10:54:48.691Z,-3.00
2022-12-14T11:00:07.299Z,-3.12
2022-12-14T11:06:19.674Z,-4.58
2022-12-14T11:11:24.113Z,-4.16
2022-12-14T11:16:37.381Z,-4.04
2022-12-14T11:21:39.507Z,-3.72
2022-12-14T11:26:43.155Z,-4.02
2022-12-14T11:31:50.519Z,-3.64
2022-12-14T11:36:52.457Z,-3.07
2022-12-14T11:42:02.872Z,-3.61
2022-12-14T11:47:25.607Z,-4.20
2022-12-14T11:52:41.763Z,-4.25
2022-12-14T11:57:57.202Z,-3.53
2022-12-14T12:02:59.464Z,-3.62
2022-12-14T12:08:07.506Z,-4.76
2022-12-14T12:13:32.428Z,-3.70
2022-12-14T12:18:46.958Z,-3.69
2022-12-14T12:23:51.635Z,-3.11
2022-12-14T12:29:03.502Z,-2.73
2022-12-14T12:34:17.340Z,-4.04
2022-12-14T12:39:24.444Z,-2.64
2022-12-14T12:44:50.426Z,-3.54
2022-12-14T12:49:53.193Z,-2.76
2022-12-14T12:54:57.795Z,-2.94
2022-12-14T13:00:01.024Z,-3.23
2022-12-14T13:05:43.997Z,-2.99
2022-12-14T13:10:35.886Z,-2.98
2022-12-14T13:15:45.888Z,-2.82
2022-12-14T13:20:49.691Z,-3.56
2022-12-14T13:25:54.060Z,-2.92
2022-12-14T13:31:16.664Z,-3.06
2022-12-14T13:36:45.757Z,-2.58
2022-12-14T13:42:32.446Z,-3.54
2022-12-14T13:47:41.302Z,-3.29
2022-12-14T13:52:49.943Z,-2.48
2022-12-14T13:57:51.858Z,-3.01
2022-12-14T14:02:55.630Z,-2.57
2022-12-14T14:08:01.547Z,-3.62
2022-12-14T14:13:29.364Z,-2.81
2022-12-14T14:18:35.092Z,-3.05
2022-12-14T14:23:38.117Z,-3.06
2022-12-14T14:28:40.075Z,-2.83
2022-12-14T14:33:49.565Z,-2.62
2022-12-14T14:38:52.707Z,-2.21
2022-12-14T14:43:58.655Z,-2.30
2022-12-14T14:49:00.966Z,-3.06
2022-12-14T14:54:44.773Z,-2.43
2022-12-14T14:59:51.144Z,-1.99
2022-12-14T15:04:57.176Z,-1.99
2022-12-14T15:10:07.621Z,-1.70
2022-12-14T15:15:28.958Z,-0.55
2022-12-14T15:20:30.978Z,-0.71
2022-12-14T15:25:35.364Z,-1.08
2022-12-14T15:30:37.371Z,-1.35
2022-12-14T15:35:42.539Z,-0.62
2022-12-14T15:41:03.284Z,-1.07
2022-12-14T15:46:16.545Z,-1.19
2022-12-14T15:51:18.715Z,-1.04
2022-12-14T15:56:36.883Z,-0.24
2022-12-14T16:01:41.123Z,-1.31
2022-12-14T16:06:46.386Z,-1.12
2022-12-14T16:12:00.914Z,-1.37
2022-12-14T16:17:03.921Z,-0.78
2022-12-14T16:22:11.557Z,-0.53
2022-12-14T16:27:18.455Z,-0.42
2022-12-14T16:32:21.977Z,-0.53
2022-12-14T16:37:32.762Z,-0.82
2022-12-14T16:42:38.198Z,-1.66
2022-12-14T16:47:58.465Z,-1.56
2022-12-14T16:53:23.750Z,-0.93
2022-12-14T16:58:25.828Z,-1.42
2022-12-14T17:03:30.775Z,-1.23
2022-12-14T17:08:36.132Z,-0.82
2022-12-14T17:13:37.772Z,-0.98
2022-12-14T17:18:40.871Z,-1.27
2022-12-14T17:23:43.663Z,-1.92
2022-12-14T17:28:45.339Z,-1.25
2022-12-14T17:33:51.606Z,-1.92
2022-12-14T17:38:53.263Z,-2.32
2022-12-14T17:43:58.090Z,-1.65
2022-12-14T17:49:06.004Z,-0.88
2022-12-14T17:54:19.276Z,-1.49
2022-12-14T17:59:21.052Z,-2.06
2022-12-14T18:04:22.675Z,-2.16
2022-12-14T18:09:24.262Z,-1.49
2022-12-14T18:14:25.993Z,-2.72
2022-12-14T18:19:27.703Z,-2.39
2022-12-14T18:24:29.301Z,-2.54
2022-12-14T18:29:31.037Z,-2.74
2022-12-14T18:34:42.067Z,-2.52
2022-12-14T18:39:43.808Z,-2.50
2022-12-14T18:44:51.142Z,-3.69
2022-12-14T18:49:52.793Z,-1.44
2022-12-14T18:54:55.443Z,-1.96
2022-12-14T18:59:57.331Z,-1.53
2022-12-14T19:04:58.942Z,-1.09
2022-12-14T19:10:01.397Z,-0.88
2022-12-14T19:15:03.576Z,-2.09
2022-12-14T19:20:05.559Z,-2.25
2022-12-14T19:25:11.257Z,-2.08
2022-12-14T19:30:19.959Z,-2.11
2022-12-14T19:35:23.019Z,-2.19
2022-12-14T19:40:24.827Z,-2.84
2022-12-14T19:45:26.581Z,-1.18
2022-12-14T19:50:28.187Z,-1.32
2022-12-14T19:55:30.100Z,-1.00
2022-12-14T20:00:34.084Z,-1.90
2022-12-14T20:05:35.867Z,-1.95
2022-12-14T20:10:37.460Z,-1.42
2022-12-14T20:15:39.190Z,-0.98
2022-12-14T20:20:40.954Z,-2.54
2022-12-14T20:25:42.714Z,-2.05
2022-12-14T20:30:45.693Z,-1.67
2022-12-14T20:35:51.525Z,-3.09
2022-12-14T20:40:54.056Z,-1.60
2022-12-14T20:45:55.895Z,-1.37
2022-12-14T20:51:02.818Z,-2.62
2022-12-14T20:56:05.870Z,-1.56
2022-12-14T21:01:18.417Z,-2.13
2022-12-14T21:06:22.719Z,-1.45
2022-12-14T21:11:42.765Z,-1.11
2022-12-14T21:16:44.505Z,-1.11
2022-12-14T21:21:51.666Z,-1.18
2022-12-14T21:26:55.346Z,-1.97
2022-12-14T21:32:00.403Z,-1.78
2022-12-14T21:37:02.339Z,-1.70
2022-12-14T21:42:12.754Z,-1.90
2022-12-14T21:47:22.579Z,-2.13
2022-12-14T21:52:27.066Z,-2.15
2022-12-14T21:57:50.419Z,-3.19
2022-12-14T22:02:52.443Z,-2.12
2022-12-14T22:07:54.071Z,-2.52
2022-12-14T22:12:55.794Z,-3.66
2022-12-14T22:17:57.382Z,-3.67
2022-12-14T22:23:00.004Z,-1.71
2022-12-14T22:28:01.563Z,-2.51
2022-12-14T22:33:03.187Z,-2.55
2022-12-14T22:38:04.744Z,-2.68
2022-12-14T22:43:06.417Z,-2.84
2022-12-14T22:48:08.115Z,-3.67
2022-12-14T22:53:09.776Z,-3.75
2022-12-14T22:58:12.185Z,-3.68
2022-12-14T23:03:13.887Z,-2.61
2022-12-14T23:08:15.640Z,-2.34
2022-12-14T23:13:36.166Z,-2.25
2022-12-14T23:18:56.445Z,-2.38
2022-12-14T23:24:17.091Z,-2.09
2022-12-14T23:29:37.266Z,-1.89
2022-12-14T23:34:57.514Z,-2.94
2022-12-14T23:40:17.697Z,-2.54
2022-12-14T23:45:37.804Z,-3.20
2022-12-14T23:50:57.968Z,-2.06
2022-12-14T23:56:19.343Z,-1.83
